sensor_id;sensor_type;location;lat;lon;timestamp;pressure;altitude;pressure_sealevel;temperature;humidity
77793;BME280;66983;51.438;5.438;2023-12-20T00:00:20;101568.47;;;9.51;100.00
77793;BME280;66983;51.438;5.438;2023-12-20T00:02:45;101557.03;;;9.46;100.00
77793;BME280;66983;51.438;5.438;2023-12-20T00:05:15;101566.91;;;9.41;100.00
77793;BME280;66983;51.438;5.438;2023-12-20T00:07:40;101566.22;;;9.33;100.00
77793;BME280;66983;51.438;5.438;2023-12-20T00:10:06;101567.19;;;9.29;100.00
77793;BME280;66983;51.438;5.438;2023-12-20T00:12:32;101569.06;;;9.25;100.00
77793;BME280;66983;51.438;5.438;2023-12-20T00:14:58;101580.59;;;9.24;100.00
77793;BME280;66983;51.438;5.438;2023-12-20T00:17:23;101581.53;;;9.22;100.00
77793;BME280;66983;51.438;5.438;2023-12-20T00:19:49;101579.84;;;9.17;100.00
77793;BME280;66983;51.438;5.438;2023-12-20T00:22:14;101577.22;;;9.16;100.00
77793;BME280;66983;51.438;5.438;2023-12-20T00:24:40;101579.03;;;9.14;100.00
77793;BME280;66983;51.438;5.438;2023-12-20T00:27:05;101580.84;;;9.12;100.00
77793;BME280;66983;51.438;5.438;2023-12-20T00:29:31;101573.84;;;9.09;100.00
77793;BME280;66983;51.438;5.438;2023-12-20T00:31:56;101571.28;;;9.03;100.00
77793;BME280;66983;51.438;5.438;2023-12-20T00:34:22;101570.38;;;9.04;100.00
77793;BME280;66983;51.438;5.438;2023-12-20T00:36:47;101573.06;;;9.04;100.00
77793;BME280;66983;51.438;5.438;2023-12-20T00:39:13;101566.03;;;9.00;100.00
77793;BME280;66983;51.438;5.438;2023-12-20T00:41:39;101572.25;;;8.99;100.00
77793;BME280;66983;51.438;5.438;2023-12-20T00:44:04;101567.84;;;8.98;100.00
77793;BME280;66983;51.438;5.438;2023-12-20T00:46:30;101559.91;;;8.97;100.00
77793;BME280;66983;51.438;5.438;2023-12-20T00:48:55;101554.69;;;8.92;100.00
77793;BME280;66983;51.438;5.438;2023-12-20T00:51:21;101558.28;;;8.90;100.00
77793;BME280;66983;51.438;5.438;2023-12-20T00:53:49;101561.88;;;8.87;100.00
77793;BME280;66983;51.438;5.438;2023-12-20T00:56:15;101556.66;;;8.82;100.00
77793;BME280;66983;51.438;5.438;2023-12-20T00:58:41;101561.13;;;8.80;100.00
77793;BME280;66983;51.438;5.438;2023-12-20T01:01:06;101554.03;;;8.81;100.00
77793;BME280;66983;51.438;5.438;2023-12-20T01:03:32;101553.19;;;8.79;100.00
77793;BME280;66983;51.438;5.438;2023-12-20T01:05:57;101555.91;;;8.76;100.00
77793;BME280;66983;51.438;5.438;2023-12-20T01:08:23;101557.78;;;8.71;100.00
77793;BME280;66983;51.438;5.438;2023-12-20T01:10:48;101560.38;;;8.74;100.00
77793;BME280;66983;51.438;5.438;2023-12-20T01:13:14;101548.97;;;8.69;100.00
77793;BME280;66983;51.438;5.438;2023-12-20T01:15:39;101568.41;;;8.71;100.00
77793;BME280;66983;51.438;5.438;2023-12-20T01:18:05;101573.72;;;8.71;100.00
77793;BME280;66983;51.438;5.438;2023-12-20T01:20:31;101573.78;;;8.68;100.00
77793;BME280;66983;51.438;5.438;2023-12-20T01:22:56;101583.53;;;8.67;100.00
77793;BME280;66983;51.438;5.438;2023-12-20T01:25:22;101582.59;;;8.70;100.00
77793;BME280;66983;51.438;5.438;2023-12-20T01:27:47;101581.69;;;8.71;100.00
77793;BME280;66983;51.438;5.438;2023-12-20T01:30:13;101585.19;;;8.73;100.00
77793;BME280;66983;51.438;5.438;2023-12-20T01:32:39;101585.16;;;8.76;100.00
77793;BME280;66983;51.438;5.438;2023-12-20T01:35:04;101580.69;;;8.78;100.00
77793;BME280;66983;51.438;5.438;2023-12-20T01:37:30;101580.69;;;8.78;100.00
77793;BME280;66983;51.438;5.438;2023-12-20T01:39:56;101585.13;;;8.77;100.00
77793;BME280;66983;51.438;5.438;2023-12-20T01:42:21;101574.50;;;8.76;100.00
77793;BME280;66983;51.438;5.438;2023-12-20T01:45:06;101576.25;;;8.77;100.00
77793;BME280;66983;51.438;5.438;2023-12-20T01:47:31;101568.28;;;8.77;100.00
77793;BME280;66983;51.438;5.438;2023-12-20T01:49:57;101581.56;;;8.78;100.00
77793;BME280;66983;51.438;5.438;2023-12-20T01:52:25;101570.91;;;8.78;100.00
77793;BME280;66983;51.438;5.438;2023-12-20T01:54:52;101570.03;;;8.79;100.00
77793;BME280;66983;51.438;5.438;2023-12-20T01:57:20;101575.31;;;8.81;100.00
77793;BME280;66983;51.438;5.438;2023-12-20T01:59:46;101568.22;;;8.80;100.00
77793;BME280;66983;51.438;5.438;2023-12-20T02:02:12;101571.78;;;8.80;100.00
77793;BME280;66983;51.438;5.438;2023-12-20T02:04:38;101569.03;;;8.83;100.00
77793;BME280;66983;51.438;5.438;2023-12-20T02:07:04;101554.09;;;8.78;100.00
77793;BME280;66983;51.438;5.438;2023-12-20T02:09:30;101557.53;;;8.83;100.00
77793;BME280;66983;51.438;5.438;2023-12-20T02:11:55;101565.47;;;8.84;100.00
77793;BME280;66983;51.438;5.438;2023-12-20T02:14:21;101569.00;;;8.85;100.00
77793;BME280;66983;51.438;5.438;2023-12-20T02:16:48;101571.75;;;8.82;100.00
77793;BME280;66983;51.438;5.438;2023-12-20T02:19:14;101585.03;;;8.82;100.00
77793;BME280;66983;51.438;5.438;2023-12-20T02:21:42;101592.03;;;8.84;100.00
77793;BME280;66983;51.438;5.438;2023-12-20T02:24:08;101578.81;;;8.83;100.00
77793;BME280;66983;51.438;5.438;2023-12-20T02:26:33;101564.59;;;8.84;100.00
77793;BME280;66983;51.438;5.438;2023-12-20T02:28:59;101554.09;;;8.78;100.00
77793;BME280;66983;51.438;5.438;2023-12-20T02:31:25;101561.16;;;8.79;100.00
77793;BME280;66983;51.438;5.438;2023-12-20T02:33:51;101565.59;;;8.78;100.00
77793;BME280;66983;51.438;5.438;2023-12-20T02:36:16;101556.72;;;8.79;100.00
77793;BME280;66983;51.438;5.438;2023-12-20T02:38:42;101554.28;;;8.69;100.00
77793;BME280;66983;51.438;5.438;2023-12-20T02:41:08;101564.00;;;8.70;100.00
77793;BME280;66983;51.438;5.438;2023-12-20T02:43:33;101566.69;;;8.68;100.00
77793;BME280;66983;51.438;5.438;2023-12-20T02:45:59;101570.16;;;8.72;100.00
77793;BME280;66983;51.438;5.438;2023-12-20T02:48:24;101571.94;;;8.71;100.00
77793;BME280;66983;51.438;5.438;2023-12-20T02:50:51;101580.81;;;8.70;100.00
77793;BME280;66983;51.438;5.438;2023-12-20T02:53:16;101573.75;;;8.69;100.00
77793;BME280;66983;51.438;5.438;2023-12-20T02:55:42;101571.03;;;8.72;100.00
77793;BME280;66983;51.438;5.438;2023-12-20T02:58:07;101578.06;;;8.75;100.00
77793;BME280;66983;51.438;5.438;2023-12-20T03:00:33;101564.72;;;8.78;100.00
77793;BME280;66983;51.438;5.438;2023-12-20T03:02:59;101571.81;;;8.79;100.00
77793;BME280;66983;51.438;5.438;2023-12-20T03:05:25;101578.91;;;8.77;100.00
77793;BME280;66983;51.438;5.438;2023-12-20T03:07:50;101559.47;;;8.75;100.00
77793;BME280;66983;51.438;5.438;2023-12-20T03:10:16;101564.72;;;8.78;100.00
77793;BME280;66983;51.438;5.438;2023-12-20T03:12:41;101559.41;;;8.78;100.00
77793;BME280;66983;51.438;5.438;2023-12-20T03:15:07;101559.41;;;8.78;100.00
77793;BME280;66983;51.438;5.438;2023-12-20T03:17:33;101555.91;;;8.76;100.00
77793;BME280;66983;51.438;5.438;2023-12-20T03:19:58;101555.88;;;8.77;100.00
77793;BME280;66983;51.438;5.438;2023-12-20T03:22:24;101555.03;;;8.75;100.00
77793;BME280;66983;51.438;5.438;2023-12-20T03:24:49;101547.16;;;8.71;100.00
77793;BME280;66983;51.438;5.438;2023-12-20T03:27:15;101555.13;;;8.71;100.00
77793;BME280;66983;51.438;5.438;2023-12-20T03:29:40;101552.50;;;8.68;100.00
77793;BME280;66983;51.438;5.438;2023-12-20T03:32:06;101556.09;;;8.65;100.00
77793;BME280;66983;51.438;5.438;2023-12-20T03:34:32;101543.72;;;8.64;100.00
77793;BME280;66983;51.438;5.438;2023-12-20T03:36:57;101546.28;;;8.69;100.00
77793;BME280;66983;51.438;5.438;2023-12-20T03:39:23;101553.34;;;8.71;100.00
77793;BME280;66983;51.438;5.438;2023-12-20T03:41:48;101556.81;;;8.75;100.00
77793;BME280;66983;51.438;5.438;2023-12-20T03:44:14;101547.91;;;8.77;100.00
77793;BME280;66983;51.438;5.438;2023-12-20T03:46:39;101552.22;;;8.83;100.00
77793;BME280;66983;51.438;5.438;2023-12-20T03:49:05;101537.94;;;8.87;100.00
77793;BME280;66983;51.438;5.438;2023-12-20T03:51:31;101543.16;;;8.92;100.00
77793;BME280;66983;51.438;5.438;2023-12-20T03:53:56;101533.41;;;8.92;100.00
77793;BME280;66983;51.438;5.438;2023-12-20T03:56:22;101535.13;;;8.95;100.00
77793;BME280;66983;51.438;5.438;2023-12-20T03:58:47;101540.44;;;8.95;100.00
77793;BME280;66983;51.438;5.438;2023-12-20T04:01:13;101543.06;;;8.96;100.00
77793;BME280;66983;51.438;5.438;2023-12-20T04:03:39;101543.00;;;8.99;100.00
77793;BME280;66983;51.438;5.438;2023-12-20T04:06:05;101534.13;;;9.00;100.00
77793;BME280;66983;51.438;5.438;2023-12-20T04:08:31;101545.66;;;9.01;100.00
77793;BME280;66983;51.438;5.438;2023-12-20T04:10:56;101547.41;;;9.02;100.00
77793;BME280;66983;51.438;5.438;2023-12-20T04:13:22;101538.63;;;8.97;100.00
77793;BME280;66983;51.438;5.438;2023-12-20T04:15:47;101548.28;;;9.02;100.00
77793;BME280;66983;51.438;5.438;2023-12-20T04:18:15;101551.81;;;9.03;100.00
77793;BME280;66983;51.438;5.438;2023-12-20T04:20:41;101552.66;;;9.05;100.00
77793;BME280;66983;51.438;5.438;2023-12-20T04:23:06;101550.88;;;9.05;100.00
77793;BME280;66983;51.438;5.438;2023-12-20T04:25:32;101547.28;;;9.08;100.00
77793;BME280;66983;51.438;5.438;2023-12-20T04:27:57;101553.47;;;9.08;100.00
77793;BME280;66983;51.438;5.438;2023-12-20T04:30:23;101544.59;;;9.09;100.00
77793;BME280;66983;51.438;5.438;2023-12-20T04:32:48;101546.47;;;9.04;100.00
77793;BME280;66983;51.438;5.438;2023-12-20T04:35:14;101556.03;;;9.11;100.00
77793;BME280;66983;51.438;5.438;2023-12-20T04:37:39;101558.81;;;9.07;100.00
77793;BME280;66983;51.438;5.438;2023-12-20T04:40:05;101552.50;;;9.11;100.00
77793;BME280;66983;51.438;5.438;2023-12-20T04:42:31;101551.53;;;9.15;100.00
77793;BME280;66983;51.438;5.438;2023-12-20T04:44:57;101555.06;;;9.15;100.00
77793;BME280;66983;51.438;5.438;2023-12-20T04:47:22;101559.53;;;9.13;100.00
77793;BME280;66983;51.438;5.438;2023-12-20T04:49:48;101559.53;;;9.13;100.00
77793;BME280;66983;51.438;5.438;2023-12-20T04:52:13;101560.44;;;9.12;100.00
77793;BME280;66983;51.438;5.438;2023-12-20T04:54:40;101547.13;;;9.14;100.00
77793;BME280;66983;51.438;5.438;2023-12-20T04:57:05;101546.31;;;9.10;100.00
77793;BME280;66983;51.438;5.438;2023-12-20T04:59:31;101546.28;;;9.12;100.00
77793;BME280;66983;51.438;5.438;2023-12-20T05:01:56;101553.31;;;9.14;100.00
77793;BME280;66983;51.438;5.438;2023-12-20T05:04:22;101541.06;;;9.07;100.00
77793;BME280;66983;51.438;5.438;2023-12-20T05:06:48;101543.66;;;9.10;100.00
77793;BME280;66983;51.438;5.438;2023-12-20T05:09:15;101537.41;;;9.11;100.00
77793;BME280;66983;51.438;5.438;2023-12-20T05:11:41;101539.09;;;9.15;100.00
77793;BME280;66983;51.438;5.438;2023-12-20T05:14:07;101529.44;;;9.11;100.00
77793;BME280;66983;51.438;5.438;2023-12-20T05:16:33;101526.88;;;9.08;100.00
77793;BME280;66983;51.438;5.438;2023-12-20T05:18:58;101533.72;;;9.18;100.00
77793;BME280;66983;51.438;5.438;2023-12-20T05:21:26;101537.22;;;9.21;100.00
77793;BME280;66983;51.438;5.438;2023-12-20T05:23:52;101528.34;;;9.22;100.00
77793;BME280;66983;51.438;5.438;2023-12-20T05:26:17;101532.72;;;9.24;100.00
77793;BME280;66983;51.438;5.438;2023-12-20T05:28:43;101533.59;;;9.25;100.00
77793;BME280;66983;51.438;5.438;2023-12-20T05:31:09;101540.72;;;9.23;100.00
77793;BME280;66983;51.438;5.438;2023-12-20T05:33:35;101532.84;;;9.18;100.00
77793;BME280;66983;51.438;5.438;2023-12-20T05:36:00;101531.84;;;9.24;100.00
77793;BME280;66983;51.438;5.438;2023-12-20T05:38:26;101541.53;;;9.26;100.00
77793;BME280;66983;51.438;5.438;2023-12-20T05:40:51;101538.03;;;9.24;100.00
77793;BME280;66983;51.438;5.438;2023-12-20T05:43:17;101533.56;;;9.26;100.00
77793;BME280;66983;51.438;5.438;2023-12-20T05:45:43;101534.47;;;9.25;100.00
77793;BME280;66983;51.438;5.438;2023-12-20T05:48:08;101531.78;;;9.27;100.00
77793;BME280;66983;51.438;5.438;2023-12-20T05:50:34;101539.75;;;9.27;100.00
77793;BME280;66983;51.438;5.438;2023-12-20T05:53:00;101542.38;;;9.28;100.00
77793;BME280;66983;51.438;5.438;2023-12-20T05:55:26;101542.34;;;9.30;100.00
77793;BME280;66983;51.438;5.438;2023-12-20T05:57:51;101548.59;;;9.29;100.00
77793;BME280;66983;51.438;5.438;2023-12-20T06:00:17;101549.47;;;9.29;100.00
77793;BME280;66983;51.438;5.438;2023-12-20T06:02:43;101540.59;;;9.29;100.00
77793;BME280;66983;51.438;5.438;2023-12-20T06:05:08;101554.81;;;9.28;100.00
77793;BME280;66983;51.438;5.438;2023-12-20T06:07:34;101557.56;;;9.23;100.00
77793;BME280;66983;51.438;5.438;2023-12-20T06:09:59;101565.59;;;9.20;100.00
77793;BME280;66983;51.438;5.438;2023-12-20T06:12:25;101560.31;;;9.18;100.00
77793;BME280;66983;51.438;5.438;2023-12-20T06:14:52;101561.28;;;9.14;100.00
77793;BME280;66983;51.438;5.438;2023-12-20T06:17:17;101558.78;;;9.08;100.00
77793;BME280;66983;51.438;5.438;2023-12-20T06:19:43;101553.59;;;9.02;100.00
77793;BME280;66983;51.438;5.438;2023-12-20T06:22:10;101552.78;;;8.99;100.00
77793;BME280;66983;51.438;5.438;2023-12-20T06:24:36;101556.38;;;8.96;100.00
77793;BME280;66983;51.438;5.438;2023-12-20T06:27:01;101557.34;;;8.92;100.00
77793;BME280;66983;51.438;5.438;2023-12-20T06:29:27;101560.91;;;8.91;100.00
77793;BME280;66983;51.438;5.438;2023-12-20T06:31:53;101558.28;;;8.90;100.00
77793;BME280;66983;51.438;5.438;2023-12-20T06:34:18;101552.22;;;8.83;100.00
77793;BME280;66983;51.438;5.438;2023-12-20T06:36:44;101549.69;;;8.77;100.00
77793;BME280;66983;51.438;5.438;2023-12-20T06:39:10;101562.78;;;8.86;100.00
77793;BME280;66983;51.438;5.438;2023-12-20T06:41:38;101560.13;;;8.84;100.00
77793;BME280;66983;51.438;5.438;2023-12-20T06:44:04;101557.53;;;8.83;100.00
77793;BME280;66983;51.438;5.438;2023-12-20T06:46:29;101550.53;;;8.79;100.00
77793;BME280;66983;51.438;5.438;2023-12-20T06:48:55;101550.47;;;8.82;100.00
77793;BME280;66983;51.438;5.438;2023-12-20T06:51:20;101553.13;;;8.82;100.00
77793;BME280;66983;51.438;5.438;2023-12-20T06:53:46;101543.47;;;8.78;100.00
77793;BME280;66983;51.438;5.438;2023-12-20T06:56:11;101562.78;;;8.86;100.00
77793;BME280;66983;51.438;5.438;2023-12-20T06:58:37;101552.13;;;8.86;100.00
77793;BME280;66983;51.438;5.438;2023-12-20T07:01:03;101545.94;;;8.85;100.00
77793;BME280;66983;51.438;5.438;2023-12-20T07:03:30;101545.94;;;8.85;100.00
77793;BME280;66983;51.438;5.438;2023-12-20T07:05:55;101545.97;;;8.84;100.00
77793;BME280;66983;51.438;5.438;2023-12-20T07:08:21;101534.59;;;8.79;100.00
77793;BME280;66983;51.438;5.438;2023-12-20T07:10:46;101537.25;;;8.79;100.00
77793;BME280;66983;51.438;5.438;2023-12-20T07:13:12;101554.88;;;8.83;100.00
77793;BME280;66983;51.438;5.438;2023-12-20T07:15:38;101540.75;;;8.81;100.00
77793;BME280;66983;51.438;5.438;2023-12-20T07:18:04;101528.50;;;8.72;100.00
77793;BME280;66983;51.438;5.438;2023-12-20T07:20:30;101530.25;;;8.73;100.00
77793;BME280;66983;51.438;5.438;2023-12-20T07:22:56;101533.84;;;8.72;100.00
77793;BME280;66983;51.438;5.438;2023-12-20T07:25:21;101539.19;;;8.69;100.00
77793;BME280;66983;51.438;5.438;2023-12-20T07:27:47;101540.16;;;8.65;100.00
77793;BME280;66983;51.438;5.438;2023-12-20T07:30:12;101544.53;;;8.68;100.00
77793;BME280;66983;51.438;5.438;2023-12-20T07:32:38;101536.63;;;8.65;100.00
77793;BME280;66983;51.438;5.438;2023-12-20T07:35:04;101550.72;;;8.68;100.00
77793;BME280;66983;51.438;5.438;2023-12-20T07:37:30;101547.16;;;8.71;100.00
77793;BME280;66983;51.438;5.438;2023-12-20T07:39:56;101544.44;;;8.74;100.00
77793;BME280;66983;51.438;5.438;2023-12-20T07:42:21;101544.38;;;8.77;100.00
77793;BME280;66983;51.438;5.438;2023-12-20T07:44:47;101554.19;;;8.73;100.00
77793;BME280;66983;51.438;5.438;2023-12-20T07:47:13;101551.50;;;8.75;100.00
77793;BME280;66983;51.438;5.438;2023-12-20T07:49:42;101544.38;;;8.77;100.00
77793;BME280;66983;51.438;5.438;2023-12-20T07:52:08;101542.59;;;8.77;100.00
77793;BME280;66983;51.438;5.438;2023-12-20T07:54:33;101543.31;;;8.84;100.00
77793;BME280;66983;51.438;5.438;2023-12-20T07:56:59;101538.84;;;8.86;100.00
77793;BME280;66983;51.438;5.438;2023-12-20T07:59:24;101552.06;;;8.91;100.00
77793;BME280;66983;51.438;5.438;2023-12-20T08:01:50;101554.63;;;8.95;100.00
77793;BME280;66983;51.438;5.438;2023-12-20T08:04:15;101551.91;;;8.98;100.00
77793;BME280;66983;51.438;5.438;2023-12-20T08:06:41;101550.06;;;9.02;100.00
77793;BME280;66983;51.438;5.438;2023-12-20T08:09:06;101554.47;;;9.03;100.00
77793;BME280;66983;51.438;5.438;2023-12-20T08:11:32;101556.22;;;9.04;100.00
77793;BME280;66983;51.438;5.438;2023-12-20T08:13:57;101553.59;;;9.02;100.00
77793;BME280;66983;51.438;5.438;2023-12-20T08:16:23;101556.19;;;9.05;100.00
77793;BME280;66983;51.438;5.438;2023-12-20T08:18:50;101557.06;;;9.06;100.00
77793;BME280;66983;51.438;5.438;2023-12-20T08:21:16;101552.69;;;9.03;100.00
77793;BME280;66983;51.438;5.438;2023-12-20T08:23:41;101558.03;;;9.02;100.00
77793;BME280;66983;51.438;5.438;2023-12-20T08:26:08;101562.44;;;9.03;100.00
77793;BME280;66983;51.438;5.438;2023-12-20T08:28:34;101575.66;;;9.07;100.00
77793;BME280;66983;51.438;5.438;2023-12-20T08:31:00;101580.00;;;9.10;100.00
77793;BME280;66983;51.438;5.438;2023-12-20T08:33:26;101576.44;;;9.11;100.00
77793;BME280;66983;51.438;5.438;2023-12-20T08:35:51;101570.31;;;9.09;100.00
77793;BME280;66983;51.438;5.438;2023-12-20T08:38:17;101569.31;;;9.11;100.00
77793;BME280;66983;51.438;5.438;2023-12-20T08:40:43;101578.16;;;9.13;100.00
77793;BME280;66983;51.438;5.438;2023-12-20T08:43:09;101573.84;;;9.09;100.00
77793;BME280;66983;51.438;5.438;2023-12-20T08:45:35;101558.91;;;9.02;100.00
77793;BME280;66983;51.438;5.438;2023-12-20T08:48:02;101559.69;;;9.07;100.00
77793;BME280;66983;51.438;5.438;2023-12-20T08:50:28;101554.38;;;9.07;100.00
77793;BME280;66983;51.438;5.438;2023-12-20T08:52:54;101561.47;;;9.07;100.00
77793;BME280;66983;51.438;5.438;2023-12-20T08:55:19;101547.28;;;9.08;100.00
77793;BME280;66983;51.438;5.438;2023-12-20T08:57:45;101540.97;;;9.10;100.00
77793;BME280;66983;51.438;5.438;2023-12-20T09:00:11;101540.97;;;9.10;100.00
77793;BME280;66983;51.438;5.438;2023-12-20T09:02:37;101544.34;;;9.18;100.00
77793;BME280;66983;51.438;5.438;2023-12-20T09:05:03;101539.88;;;9.21;100.00
77793;BME280;66983;51.438;5.438;2023-12-20T09:07:29;101537.31;;;9.16;100.00
77793;BME280;66983;51.438;5.438;2023-12-20T09:09:57;101539.91;;;9.19;100.00
77793;BME280;66983;51.438;5.438;2023-12-20T09:12:26;101544.34;;;9.18;100.00
77793;BME280;66983;51.438;5.438;2023-12-20T09:14:53;101551.38;;;9.23;100.00
77793;BME280;66983;51.438;5.438;2023-12-20T09:17:18;101554.00;;;9.24;100.00
77793;BME280;66983;51.438;5.438;2023-12-20T09:19:45;101557.56;;;9.23;100.00
77793;BME280;66983;51.438;5.438;2023-12-20T09:22:11;101563.72;;;9.25;100.00
77793;BME280;66983;51.438;5.438;2023-12-20T09:24:38;101556.63;;;9.26;100.00
77793;BME280;66983;51.438;5.438;2023-12-20T09:27:05;101554.78;;;9.29;100.00
77793;BME280;66983;51.438;5.438;2023-12-20T09:29:31;101552.94;;;9.33;100.00
77793;BME280;66983;51.438;5.438;2023-12-20T09:31:57;101551.19;;;9.32;100.00
77793;BME280;66983;51.438;5.438;2023-12-20T09:34:23;101550.41;;;9.27;100.00
77793;BME280;66983;51.438;5.438;2023-12-20T09:36:49;101551.31;;;9.26;100.00
77793;BME280;66983;51.438;5.438;2023-12-20T09:39:16;101553.13;;;9.24;100.00
77793;BME280;66983;51.438;5.438;2023-12-20T09:42:01;101547.88;;;9.21;100.00
77793;BME280;66983;51.438;5.438;2023-12-20T09:44:27;101553.13;;;9.24;100.00
77793;BME280;66983;51.438;5.438;2023-12-20T09:46:55;101535.47;;;9.19;100.00
77793;BME280;66983;51.438;5.438;2023-12-20T09:49:22;101544.16;;;9.28;100.00
77793;BME280;66983;51.438;5.438;2023-12-20T09:51:50;101545.03;;;9.28;100.00
77793;BME280;66983;51.438;5.438;2023-12-20T09:54:17;101548.56;;;9.30;100.00
77793;BME280;66983;51.438;5.438;2023-12-20T09:56:44;101541.47;;;9.29;100.00
77793;BME280;66983;51.438;5.438;2023-12-20T09:59:09;101543.25;;;9.29;100.00
77793;BME280;66983;51.438;5.438;2023-12-20T10:01:38;101530.13;;;9.21;100.00
77793;BME280;66983;51.438;5.438;2023-12-20T10:04:07;101537.09;;;9.27;100.00
77793;BME280;66983;51.438;5.438;2023-12-20T10:06:40;101530.09;;;9.23;100.00
77793;BME280;66983;51.438;5.438;2023-12-20T10:09:06;101534.38;;;9.30;100.00
77793;BME280;66983;51.438;5.438;2023-12-20T10:11:31;101536.19;;;9.28;100.00
77793;BME280;66983;51.438;5.438;2023-12-20T10:14:00;101531.75;;;9.28;100.00
77793;BME280;66983;51.438;5.438;2023-12-20T10:16:30;101524.66;;;9.29;100.00
77793;BME280;66983;51.438;5.438;2023-12-20T10:18:56;101520.25;;;9.26;100.00
77793;BME280;66983;51.438;5.438;2023-12-20T10:21:23;101521.00;;;9.33;100.00
77793;BME280;66983;51.438;5.438;2023-12-20T10:23:52;101515.75;;;9.30;100.00
77793;BME280;66983;51.438;5.438;2023-12-20T10:26:21;101524.56;;;9.32;100.00
77793;BME280;66983;51.438;5.438;2023-12-20T10:28:55;101524.44;;;9.36;100.00
77793;BME280;66983;51.438;5.438;2023-12-20T10:31:29;101527.94;;;9.38;100.00
77793;BME280;66983;51.438;5.438;2023-12-20T10:33:57;101534.97;;;9.41;100.00
77793;BME280;66983;51.438;5.438;2023-12-20T10:36:24;101541.22;;;9.40;100.00
77793;BME280;66983;51.438;5.438;2023-12-20T10:38:52;101531.38;;;9.43;100.00
77793;BME280;66983;51.438;5.438;2023-12-20T10:41:29;101537.53;;;9.45;100.00
77793;BME280;66983;51.438;5.438;2023-12-20T10:43:59;101532.19;;;9.47;100.00
77793;BME280;66983;51.438;5.438;2023-12-20T10:46:26;101535.75;;;9.46;100.00
77793;BME280;66983;51.438;5.438;2023-12-20T10:48:54;101521.50;;;9.48;100.00
77793;BME280;66983;51.438;5.438;2023-12-20T10:51:21;101520.56;;;9.51;100.00
77793;BME280;66983;51.438;5.438;2023-12-20T10:53:48;101518.81;;;9.50;100.00
77793;BME280;66983;51.438;5.438;2023-12-20T10:56:18;101521.47;;;9.50;100.00
77793;BME280;66983;51.438;5.438;2023-12-20T10:58:48;101517.00;;;9.52;100.00
77793;BME280;66983;51.438;5.438;2023-12-20T11:01:16;101511.75;;;9.49;100.00
77793;BME280;66983;51.438;5.438;2023-12-20T11:03:53;101504.63;;;9.49;100.00
77793;BME280;66983;51.438;5.438;2023-12-20T11:06:33;101497.47;;;9.53;100.00
77793;BME280;66983;51.438;5.438;2023-12-20T11:12:21;101499.09;;;9.59;100.00
77793;BME280;66983;51.438;5.438;2023-12-20T11:14:52;101501.72;;;9.60;100.00
77793;BME280;66983;51.438;5.438;2023-12-20T11:17:19;101501.66;;;9.62;100.00
77793;BME280;66983;51.438;5.438;2023-12-20T11:22:24;101505.03;;;9.70;100.00
77793;BME280;66983;51.438;5.438;2023-12-20T11:24:51;101508.47;;;9.73;100.00
77793;BME280;66983;51.438;5.438;2023-12-20T11:27:18;101506.69;;;9.74;100.00
77793;BME280;66983;51.438;5.438;2023-12-20T11:29:52;101498.72;;;9.74;100.00
77793;BME280;66983;51.438;5.438;2023-12-20T11:35:38;101484.47;;;9.76;100.00
77793;BME280;66983;51.438;5.438;2023-12-20T11:37:49;101474.75;;;9.74;100.00
77793;BME280;66983;51.438;5.438;2023-12-20T11:40:16;101471.19;;;9.75;100.00
77793;BME280;66983;51.438;5.438;2023-12-20T11:42:48;101459.72;;;9.71;100.00
77793;BME280;66983;51.438;5.438;2023-12-20T11:45:16;101459.69;;;9.73;100.00
77793;BME280;66983;51.438;5.438;2023-12-20T11:47:46;101464.09;;;9.74;100.00
77793;BME280;66983;51.438;5.438;2023-12-20T11:50:11;101467.69;;;9.73;100.00
77793;BME280;66983;51.438;5.438;2023-12-20T11:52:38;101472.97;;;9.74;100.00
77793;BME280;66983;51.438;5.438;2023-12-20T11:55:04;101463.13;;;9.78;100.00
77793;BME280;66983;51.438;5.438;2023-12-20T11:57:30;101466.59;;;9.81;100.00
77793;BME280;66983;51.438;5.438;2023-12-20T11:59:56;101459.50;;;9.80;100.00
77793;BME280;66983;51.438;5.438;2023-12-20T12:02:21;101472.75;;;9.83;100.00
77793;BME280;66983;51.438;5.438;2023-12-20T12:04:50;101468.28;;;9.84;100.00
77793;BME280;66983;51.438;5.438;2023-12-20T12:07:17;101451.44;;;9.83;100.00
77793;BME280;66983;51.438;5.438;2023-12-20T12:09:43;101450.63;;;9.81;100.00
77793;BME280;66983;51.438;5.438;2023-12-20T12:12:10;101440.13;;;9.75;100.00
77793;BME280;66983;51.438;5.438;2023-12-20T12:14:37;101443.63;;;9.77;100.00
77793;BME280;66983;51.438;5.438;2023-12-20T12:17:03;101440.94;;;9.77;100.00
77793;BME280;66983;51.438;5.438;2023-12-20T12:19:29;101434.78;;;9.75;100.00
77793;BME280;66983;51.438;5.438;2023-12-20T12:22:10;101436.53;;;9.76;100.00
77793;BME280;66983;51.438;5.438;2023-12-20T12:24:48;101424.97;;;9.77;100.00
77793;BME280;66983;51.438;5.438;2023-12-20T12:27:15;101428.56;;;9.76;100.00
77793;BME280;66983;51.438;5.438;2023-12-20T12:30:00;101418.03;;;9.72;100.00
77793;BME280;66983;51.438;5.438;2023-12-20T12:32:26;101429.38;;;9.78;100.00
77793;BME280;66983;51.438;5.438;2023-12-20T12:34:51;101431.94;;;9.83;100.00
77793;BME280;66983;51.438;5.438;2023-12-20T12:37:17;101423.13;;;9.81;100.00
77793;BME280;66983;51.438;5.438;2023-12-20T12:39:43;101423.94;;;9.83;100.00
77793;BME280;66983;51.438;5.438;2023-12-20T12:42:08;101418.66;;;9.81;100.00
77793;BME280;66983;51.438;5.438;2023-12-20T12:44:34;101429.38;;;9.78;100.00
77793;BME280;66983;51.438;5.438;2023-12-20T12:47:00;101414.31;;;9.77;100.00
77793;BME280;66983;51.438;5.438;2023-12-20T12:49:28;101404.66;;;9.73;100.00
77793;BME280;66983;51.438;5.438;2023-12-20T12:51:53;101413.41;;;9.78;100.00
77793;BME280;66983;51.438;5.438;2023-12-20T12:54:21;101411.66;;;9.77;100.00